Time;durP1;ratioP1;P1;durP2;ratioP2;P2;SDS_P1;SDS_P2;PMS_P1;PMS_P2;Temp;Humidity;BMP_temperature;BMP_pressure;BME280_temperature;BME280_humidity;BME280_pressure;Samples;Min_cycle;Max_cycle;Signal;HPM_P1;HPM_P2
2022/10/28 00:00:05;;;;;;;8.38;3.53;;;;;;;14.67;78.76;100188.72;337371;29;1771;-76
2022/10/28 00:00:17;;;;;;;7.22;3.70;;;;;;;14.68;78.54;100185.19;338506;29;1264;-75
2022/10/28 00:00:29;;;;;;;8.00;3.80;;;;;;;14.67;78.72;100188.72;339561;29;1719;-75
2022/10/28 00:00:41;;;;;;;7.53;3.83;;;;;;;14.68;78.50;100185.19;339456;29;1941;-74
2022/10/28 00:00:53;;;;;;;7.53;3.90;;;;;;;14.67;78.88;100188.72;338483;29;1145;-74
2022/10/28 00:01:07;;;;;;;8.85;4.30;;;;;;;14.66;79.02;100192.25;338337;29;1053;-75
2022/10/28 00:01:22;;;;;;;9.30;4.20;;;;;;;14.65;79.12;100185.31;338675;29;1328;-75
2022/10/28 00:01:34;;;;;;;7.53;3.80;;;;;;;14.65;79.29;100184.44;339855;29;1092;-75
2022/10/28 00:01:46;;;;;;;7.05;3.72;;;;;;;14.65;79.42;100185.31;337771;29;1590;-75
2022/10/28 00:01:58;;;;;;;7.20;3.92;;;;;;;14.66;79.33;100180.94;337776;29;2131;-75
2022/10/28 00:02:10;;;;;;;9.50;4.32;;;;;;;14.68;79.34;100190.41;339783;29;1041;-75
2022/10/28 00:02:22;;;;;;;9.93;4.30;;;;;;;14.68;79.37;100187.81;339010;29;1368;-75
2022/10/28 00:02:34;;;;;;;9.95;4.60;;;;;;;14.68;79.44;100179.94;338781;29;1036;-75
2022/10/28 00:02:46;;;;;;;8.63;4.65;;;;;;;14.70;79.29;100183.34;337947;29;1732;-75
2022/10/28 00:03:00;;;;;;;6.50;4.20;;;;;;;14.73;79.38;100188.47;337454;29;2079;-76
2022/10/28 00:03:12;;;;;;;5.88;3.90;;;;;;;14.71;79.55;100179.84;339406;29;1348;-76
2022/10/28 00:03:24;;;;;;;5.63;3.83;;;;;;;14.72;79.29;100181.53;339637;29;1469;-76
2022/10/28 00:03:39;;;;;;;7.57;4.00;;;;;;;14.73;79.31;100177.16;339761;29;1077;-76
2022/10/28 00:03:53;;;;;;;8.68;4.25;;;;;;;14.72;79.27;100172.84;339148;29;1581;-76
2022/10/28 00:04:05;;;;;;;10.10;4.60;;;;;;;14.72;79.28;100178.91;339304;29;2079;-76
2022/10/28 00:04:17;;;;;;;9.73;4.43;;;;;;;14.73;79.27;100180.63;342374;28;1284;-76
2022/10/28 00:04:29;;;;;;;9.38;4.78;;;;;;;14.72;79.18;100176.28;341240;28;1277;-76
2022/10/28 00:04:46;;;;;;;7.95;4.53;;;;;;;14.74;79.25;100178.84;340187;28;1579;-76
2022/10/28 00:04:58;;;;;;;7.22;4.15;;;;;;;14.74;79.24;100179.69;341083;28;2084;-76
2022/10/28 00:05:10;;;;;;;7.93;4.22;;;;;;;14.76;79.16;100179.63;341380;28;1035;-76
2022/10/28 00:05:21;;;;;;;8.38;4.30;;;;;;;14.78;78.82;100177.81;341425;28;1306;-76
2022/10/28 00:05:33;;;;;;;8.02;4.03;;;;;;;14.80;78.71;100178.59;341270;28;1137;-76
2022/10/28 00:05:45;;;;;;;6.38;4.25;;;;;;;14.81;78.58;100182.06;340941;28;1638;-76
2022/10/28 00:06:11;;;;;;;5.28;3.90;;;;;;;14.83;78.51;100177.59;341004;28;2073;-76
2022/10/28 00:06:32;;;;;;;7.03;3.80;;;;;;;14.83;78.65;100181.09;341127;28;1180;-76
2022/10/28 00:06:44;;;;;;;8.32;4.22;;;;;;;14.81;78.73;100184.66;339818;28;1710;-76
2022/10/28 00:06:56;;;;;;;8.13;4.40;;;;;;;14.81;78.72;100184.66;341084;28;2105;-76
2022/10/28 00:07:08;;;;;;;9.32;4.53;;;;;;;14.82;78.64;100181.16;341123;28;1050;-76
2022/10/28 00:07:20;;;;;;;10.75;4.20;;;;;;;14.82;78.56;100184.63;341220;28;1303;-76
2022/10/28 00:07:32;;;;;;;9.82;4.20;;;;;;;14.84;78.45;100184.56;341315;28;1150;-76
2022/10/28 00:07:43;;;;;;;9.40;4.00;;;;;;;14.85;78.48;100186.25;340339;28;1797;-76
2022/10/28 00:07:55;;;;;;;8.48;3.83;;;;;;;14.86;78.10;100180.97;340136;29;1995;-76
2022/10/28 00:08:07;;;;;;;8.57;3.75;;;;;;;14.86;78.30;100187.97;341241;28;1265;-76
2022/10/28 00:08:19;;;;;;;8.13;3.78;;;;;;;14.86;78.21;100182.72;340484;29;1430;-76
2022/10/28 00:08:32;;;;;;;11.40;4.07;;;;;;;14.88;78.25;100193.97;341080;28;1138;-76
2022/10/28 00:08:44;;;;;;;11.27;4.00;;;;;;;14.88;78.15;100188.75;340012;28;2104;-76
2022/10/28 00:08:57;;;;;;;9.73;3.88;;;;;;;14.87;78.21;100184.41;339356;28;2265;-76
2022/10/28 00:09:08;;;;;;;8.30;3.97;;;;;;;14.84;78.10;100190.63;339874;28;2215;-76
2022/10/28 00:09:23;;;;;;;7.00;4.15;;;;;;;14.85;77.94;100194.09;340719;29;1237;-76
2022/10/28 00:09:35;;;;;;;8.40;4.05;;;;;;;14.82;78.06;100191.63;341046;28;1039;-76
2022/10/28 00:09:47;;;;;;;9.77;4.28;;;;;;;14.80;78.03;100193.47;340317;28;1924;-76
2022/10/28 00:09:59;;;;;;;11.18;4.40;;;;;;;14.80;78.21;100196.06;341223;28;1227;-76
2022/10/28 00:10:11;;;;;;;11.02;4.30;;;;;;;14.73;78.01;100198.09;341004;29;1142;-76
2022/10/28 00:10:22;;;;;;;10.93;3.80;;;;;;;14.74;78.14;100203.25;341102;29;1331;-76
2022/10/28 00:10:34;;;;;;;10.15;3.90;;;;;;;14.64;78.11;100193.22;340848;29;1135;-76
2022/10/28 00:10:46;;;;;;;7.70;3.83;;;;;;;14.68;78.25;100195.66;339094;29;1778;-75
2022/10/28 00:11:21;;;;;;;6.90;4.03;;;;;;;14.70;78.02;100204.28;339056;29;1893;-75
2022/10/28 00:11:34;;;;;;;8.82;4.03;;;;;;;14.69;77.79;100207.84;339838;29;1256;-76
2022/10/28 00:11:45;;;;;;;8.07;3.50;;;;;;;14.70;77.95;100204.28;338821;29;1559;-76
2022/10/28 00:11:57;;;;;;;6.18;3.35;;;;;;;14.68;77.80;100211.34;339477;29;1839;-76
2022/10/28 00:12:09;;;;;;;6.78;3.55;;;;;;;14.69;77.71;100206.97;338866;29;1044;-75
2022/10/28 00:12:21;;;;;;;7.03;3.70;;;;;;;14.64;77.78;100206.31;340178;29;1342;-75
2022/10/28 00:12:35;;;;;;;6.93;3.67;;;;;;;14.57;77.77;100209.19;341177;29;1158;-75
2022/10/28 00:12:47;;;;;;;8.00;3.72;;;;;;;14.57;77.86;100210.94;340589;28;1618;-75
2022/10/28 00:12:59;;;;;;;7.05;3.67;;;;;;;14.47;78.08;100207.81;340580;29;1935;-75
2022/10/28 00:13:11;;;;;;;7.10;3.60;;;;;;;14.41;77.94;100209.81;341350;28;1236;-76
2022/10/28 00:13:22;;;;;;;7.57;3.72;;;;;;;14.38;77.97;100208.16;341174;28;1274;-76
2022/10/28 00:13:35;;;;;;;7.68;3.80;;;;;;;14.33;78.39;100210.13;341414;28;1222;-75
2022/10/28 00:13:48;;;;;;;8.60;3.70;;;;;;;14.35;78.31;100209.16;340886;28;1701;-75
2022/10/28 00:14:02;;;;;;;8.52;3.50;;;;;;;14.39;78.14;100209.88;340756;29;1908;-75
2022/10/28 00:14:14;;;;;;;7.10;3.58;;;;;;;14.35;78.34;100211.75;340014;28;2487;-75
2022/10/28 00:14:26;;;;;;;7.05;3.55;;;;;;;14.34;78.20;100207.44;340354;28;1887;-75
2022/10/28 00:14:38;;;;;;;7.30;3.97;;;;;;;14.34;78.23;100207.44;339911;28;2366;-76
2022/10/28 00:14:50;;;;;;;7.78;4.10;;;;;;;14.32;78.32;100209.25;339871;28;2595;-76
2022/10/28 00:15:04;;;;;;;8.23;4.03;;;;;;;14.28;78.58;100207.66;340564;29;2570;-76
2022/10/28 00:15:16;;;;;;;8.40;3.95;;;;;;;14.24;78.64;100211.31;341024;28;1986;-76
2022/10/28 00:15:28;;;;;;;8.32;3.97;;;;;;;14.20;78.93;100204.50;341483;28;1099;-76
2022/10/28 00:15:40;;;;;;;6.63;3.80;;;;;;;14.22;78.91;100207.06;341367;28;1260;-76
2022/10/28 00:15:51;;;;;;;7.00;3.67;;;;;;;14.19;78.75;100202.81;340326;28;1763;-76
2022/10/28 00:16:08;;;;;;;5.30;3.30;;;;;;;14.21;79.17;100206.22;339842;29;2165;-76
2022/10/28 00:16:23;;;;;;;6.25;3.47;;;;;;;14.24;79.13;100206.09;340323;29;1188;-76
2022/10/28 00:16:36;;;;;;;7.82;3.75;;;;;;;14.27;78.89;100205.97;341023;29;981;-76
2022/10/28 00:16:48;;;;;;;7.38;3.78;;;;;;;14.29;78.95;100209.38;339791;28;1910;-76
2022/10/28 00:17:00;;;;;;;7.68;3.70;;;;;;;14.30;78.97;100205.84;339427;29;2108;-76
2022/10/28 00:17:12;;;;;;;6.80;3.55;;;;;;;14.30;78.94;100205.84;341073;28;1910;-76
2022/10/28 00:17:24;;;;;;;8.02;3.70;;;;;;;14.31;78.88;100212.78;338730;29;1495;-76
2022/10/28 00:17:36;;;;;;;8.00;3.45;;;;;;;14.33;78.99;100205.75;339889;29;1039;-76
2022/10/28 00:17:48;;;;;;;8.57;3.67;;;;;;;14.33;78.79;100203.13;337468;29;2298;-76
2022/10/28 00:18:00;;;;;;;8.30;3.72;;;;;;;14.36;78.96;100210.00;339357;29;1903;-76
2022/10/28 00:18:12;;;;;;;9.52;3.85;;;;;;;14.37;78.85;100207.31;338667;29;1088;-76
2022/10/28 00:18:23;;;;;;;9.85;3.97;;;;;;;14.38;78.78;100203.78;338098;29;1495;-76
2022/10/28 00:18:36;;;;;;;8.60;3.80;;;;;;;14.40;78.85;100208.94;338224;29;1064;-76
2022/10/28 00:18:49;;;;;;;9.52;3.63;;;;;;;14.39;79.22;100213.34;337331;29;2821;-76
2022/10/28 00:19:03;;;;;;;10.98;3.63;;;;;;;14.40;79.07;100206.34;337412;29;2261;-76
2022/10/28 00:19:15;;;;;;;8.95;3.60;;;;;;;14.42;79.04;100211.53;335735;29;2485;-76
2022/10/28 00:19:28;;;;;;;7.47;3.88;;;;;;;14.43;79.33;100206.22;336461;29;2500;-76
2022/10/28 00:19:40;;;;;;;8.52;3.58;;;;;;;14.45;79.24;100208.78;337219;29;2129;-76
2022/10/28 00:19:52;;;;;;;8.07;3.40;;;;;;;14.45;79.23;100203.56;338603;29;1019;-76
2022/10/28 00:20:04;;;;;;;9.68;3.40;;;;;;;14.46;79.28;100211.31;339364;29;1020;-76
2022/10/28 00:20:16;;;;;;;9.48;3.47;;;;;;;14.49;78.97;100210.38;339633;29;2602;-76
2022/10/28 00:20:30;;;;;;;9.18;3.55;;;;;;;14.51;79.20;100211.16;340273;29;1774;-76
2022/10/28 00:20:42;;;;;;;8.15;3.60;;;;;;;14.52;79.09;100208.47;339053;29;2619;-76
2022/10/28 00:20:59;;;;;;;6.45;3.70;;;;;;;14.53;79.02;100207.56;339405;29;2614;-76
2022/10/28 00:21:15;;;;;;;7.53;3.97;;;;;;;14.52;79.05;100207.63;339760;29;2413;-76
2022/10/28 00:21:29;;;;;;;10.13;4.20;;;;;;;14.54;79.13;100205.78;340880;29;1126;-76
2022/10/28 00:21:42;;;;;;;9.57;4.00;;;;;;;14.52;79.21;100210.25;341001;29;1092;-76
2022/10/28 00:21:54;;;;;;;7.97;4.07;;;;;;;14.54;79.22;100208.41;341163;29;1047;-76
2022/10/28 00:22:06;;;;;;;7.25;3.95;;;;;;;14.55;79.17;100204.91;341111;29;1136;-76
2022/10/28 00:22:18;;;;;;;9.13;4.00;;;;;;;14.55;79.00;100210.13;340942;29;1243;-76
2022/10/28 00:22:30;;;;;;;7.00;3.75;;;;;;;14.54;79.43;100208.41;340826;29;1033;-76
2022/10/28 00:22:42;;;;;;;6.57;3.70;;;;;;;14.52;79.39;100205.84;340625;29;1008;-76
2022/10/28 00:22:54;;;;;;;9.30;3.90;;;;;;;14.54;79.51;100208.41;340900;29;1059;-76
2022/10/28 00:23:06;;;;;;;9.90;4.10;;;;;;;14.53;79.47;100202.34;339888;29;1067;-76
2022/10/28 00:23:18;;;;;;;10.43;3.90;;;;;;;14.54;79.42;100204.03;339729;29;1290;-76
2022/10/28 00:23:30;;;;;;;10.10;3.78;;;;;;;14.55;79.39;100204.91;340447;29;1062;-76
2022/10/28 00:23:42;;;;;;;8.70;3.80;;;;;;;14.55;79.42;100204.91;341135;29;1036;-76
2022/10/28 00:23:55;;;;;;;6.85;3.80;;;;;;;14.56;79.53;100204.00;340121;29;2760;-76
2022/10/28 00:24:08;;;;;;;7.40;4.00;;;;;;;14.58;79.36;100199.56;339953;29;1711;-76
2022/10/28 00:24:20;;;;;;;7.13;3.88;;;;;;;14.57;79.39;100205.72;339797;29;2058;-76
2022/10/28 00:24:32;;;;;;;7.25;3.83;;;;;;;14.57;79.47;100203.94;341069;29;1476;-76
2022/10/28 00:24:44;;;;;;;7.57;3.78;;;;;;;14.61;79.53;100198.56;340109;29;1598;-76
2022/10/28 00:24:56;;;;;;;7.85;3.75;;;;;;;14.62;79.21;100201.13;340607;28;1837;-76
2022/10/28 00:25:08;;;;;;;7.75;3.67;;;;;;;14.63;79.37;100204.59;341451;28;1182;-76
2022/10/28 00:25:23;;;;;;;8.93;3.83;;;;;;;14.63;79.37;100197.63;342218;28;1344;-76
2022/10/28 00:25:35;;;;;;;7.95;4.07;;;;;;;14.65;79.16;100201.03;341657;28;1853;-76
2022/10/28 00:25:47;;;;;;;8.43;4.10;;;;;;;14.66;78.94;100197.47;341781;28;1699;-76
2022/10/28 00:26:29;;;;;;;8.65;3.90;;;;;;;14.70;78.83;100198.22;342387;28;1958;-76
2022/10/28 00:26:42;;;;;;;6.90;3.90;;;;;;;14.72;78.89;100196.38;339760;29;2326;-77
2022/10/28 00:26:54;;;;;;;8.65;3.88;;;;;;;14.73;78.73;100203.34;340857;28;1745;-77
2022/10/28 00:27:06;;;;;;;8.38;3.83;;;;;;;14.74;78.79;100195.41;340088;29;1216;-77
2022/10/28 00:27:18;;;;;;;7.32;3.90;;;;;;;14.74;78.96;100199.78;340100;29;1302;-77
2022/10/28 00:27:30;;;;;;;7.28;4.00;;;;;;;14.74;78.71;100199.78;340271;28;1906;-77
2022/10/28 00:27:42;;;;;;;9.00;4.05;;;;;;;14.75;78.77;100198.88;340477;29;1978;-76
2022/10/28 00:27:54;;;;;;;8.57;3.85;;;;;;;14.73;78.84;100198.94;341465;28;1072;-76
2022/10/28 00:28:07;;;;;;;7.75;3.85;;;;;;;14.73;78.90;100204.19;341197;28;1205;-76
2022/10/28 00:28:19;;;;;;;7.75;4.28;;;;;;;14.74;78.73;100200.63;340961;28;1407;-76
2022/10/28 00:28:31;;;;;;;8.02;4.30;;;;;;;14.73;78.80;100193.72;341254;29;1096;-76
2022/10/28 00:28:48;;;;;;;7.95;3.90;;;;;;;14.75;78.69;100194.50;342620;28;1796;-76
2022/10/28 00:29:04;;;;;;;7.40;4.00;;;;;;;14.76;78.85;100198.81;339465;29;1059;-76
2022/10/28 00:29:17;;;;;;;6.70;4.18;;;;;;;14.77;78.62;100197.91;340101;28;1910;-76
2022/10/28 00:29:31;;;;;;;7.72;3.92;;;;;;;14.78;78.47;100196.13;339603;29;1295;-76
2022/10/28 00:29:42;;;;;;;8.90;3.80;;;;;;;14.80;78.54;100194.31;339626;29;1427;-76
2022/10/28 00:29:55;;;;;;;8.77;3.78;;;;;;;14.81;78.35;100197.75;339908;29;2680;-76
2022/10/28 00:30:08;;;;;;;9.52;3.85;;;;;;;14.81;78.37;100193.41;341185;29;1123;-76
2022/10/28 00:30:20;;;;;;;9.32;4.10;;;;;;;14.81;78.37;100192.53;340491;28;1956;-76
2022/10/28 00:30:32;;;;;;;8.80;3.92;;;;;;;14.79;78.73;100190.00;341025;29;1083;-76
2022/10/28 00:30:44;;;;;;;7.45;3.85;;;;;;;14.81;78.67;100196.00;340704;29;1091;-76
2022/10/28 00:31:03;;;;;;;7.43;3.80;;;;;;;14.82;78.60;100197.69;339921;28;1240;-76
2022/10/28 00:31:16;;;;;;;10.23;4.20;;;;;;;14.82;78.64;100189.00;340182;28;1544;-76
2022/10/28 00:31:30;;;;;;;10.43;4.25;;;;;;;14.83;78.53;100194.19;339548;29;2676;-76
2022/10/28 00:31:43;;;;;;;8.57;4.03;;;;;;;14.83;78.72;100193.31;340551;29;2045;-76
2022/10/28 00:31:55;;;;;;;9.27;4.20;;;;;;;14.82;78.95;100191.63;341353;28;1240;-76
2022/10/28 00:32:06;;;;;;;10.88;4.20;;;;;;;14.81;78.83;100195.16;342429;28;1051;-76
2022/10/28 00:32:18;;;;;;;11.15;4.15;;;;;;;14.82;78.80;100189.00;341725;28;1731;-76
2022/10/28 00:32:30;;;;;;;9.20;4.15;;;;;;;14.84;78.64;100192.41;342453;28;1814;-76
2022/10/28 00:32:42;;;;;;;7.18;3.90;;;;;;;14.84;78.47;100189.78;342540;28;1074;-76
2022/10/28 00:32:54;;;;;;;8.95;3.97;;;;;;;14.86;78.40;100196.66;342170;28;1992;-76
2022/10/28 00:33:06;;;;;;;9.52;3.80;;;;;;;14.87;78.17;100192.28;342166;28;1065;-76
2022/10/28 00:33:18;;;;;;;9.10;4.03;;;;;;;14.86;78.21;100198.44;342149;28;1339;-76
2022/10/28 00:33:30;;;;;;;9.13;4.10;;;;;;;14.87;78.17;100194.88;342329;28;1016;-76
2022/10/28 00:33:43;;;;;;;8.02;3.97;;;;;;;14.88;78.10;100197.44;342527;28;1132;-76
2022/10/28 00:33:57;;;;;;;7.05;3.80;;;;;;;14.89;78.04;100190.44;342222;28;1048;-76
2022/10/28 00:34:18;;;;;;;5.95;3.75;;;;;;;14.90;78.04;100195.63;340979;28;1766;-76
2022/10/28 00:34:30;;;;;;;8.75;3.80;;;;;;;14.91;78.06;100194.72;340836;28;2416;-76
2022/10/28 00:34:42;;;;;;;8.50;3.85;;;;;;;14.91;77.85;100193.84;341020;28;1842;-76
2022/10/28 00:34:54;;;;;;;10.23;4.20;;;;;;;14.92;78.01;100198.19;340988;28;1035;-76
2022/10/28 00:35:06;;;;;;;11.30;4.22;;;;;;;14.93;78.01;100192.00;340854;28;1654;-76
2022/10/28 00:35:18;;;;;;;11.32;4.15;;;;;;;14.94;77.87;100196.34;340606;28;1201;-76
2022/10/28 00:35:30;;;;;;;10.30;4.22;;;;;;;14.93;77.95;100195.50;341487;28;1173;-76
2022/10/28 00:35:42;;;;;;;9.30;4.25;;;;;;;14.95;77.98;100198.03;341379;28;1064;-76
2022/10/28 00:35:54;;;;;;;13.05;4.28;;;;;;;14.94;77.63;100199.81;339842;28;2087;-76
2022/10/28 00:36:27;;;;;;;12.90;4.10;;;;;;;14.92;77.91;100198.19;340786;28;1690;-76
2022/10/28 00:36:41;;;;;;;6.95;4.07;;;;;;;14.91;77.79;100196.47;340243;28;1723;-76
2022/10/28 00:36:53;;;;;;;6.18;3.83;;;;;;;14.92;77.87;100198.19;341028;29;1921;-76
2022/10/28 00:37:05;;;;;;;7.75;3.80;;;;;;;14.93;77.83;100194.63;341275;29;1035;-76
2022/10/28 00:37:17;;;;;;;8.00;3.83;;;;;;;14.92;77.73;100193.78;340853;29;1343;-76
2022/10/28 00:37:29;;;;;;;7.75;4.00;;;;;;;14.88;77.83;100199.22;340978;29;1267;-76
2022/10/28 00:37:41;;;;;;;8.82;4.32;;;;;;;14.89;78.01;100195.69;340460;29;1868;-76
2022/10/28 00:37:53;;;;;;;9.00;4.40;;;;;;;14.86;78.14;100198.44;340396;29;2162;-76
2022/10/28 00:38:05;;;;;;;7.30;4.18;;;;;;;14.86;78.05;100199.28;340726;29;2070;-76
2022/10/28 00:38:17;;;;;;;8.02;4.15;;;;;;;14.87;78.09;100194.88;340035;29;1679;-76
2022/10/28 00:38:29;;;;;;;8.98;4.30;;;;;;;14.89;78.05;100200.91;341093;29;1074;-76
2022/10/28 00:38:43;;;;;;;9.90;4.07;;;;;;;14.90;77.96;100207.88;341130;29;1072;-76
2022/10/28 00:38:55;;;;;;;9.52;4.05;;;;;;;14.91;77.71;100196.47;340672;29;1970;-76
2022/10/28 00:39:16;;;;;;;11.20;4.30;;;;;;;14.91;77.78;100202.56;340988;29;1235;-76
2022/10/28 00:39:28;;;;;;;9.63;4.30;;;;;;;14.87;77.56;100205.34;341496;28;1961;-76
2022/10/28 00:39:40;;;;;;;8.00;4.43;;;;;;;14.84;77.65;100197.66;342434;28;1193;-76
2022/10/28 00:39:52;;;;;;;8.02;4.40;;;;;;;14.84;77.56;100200.25;342464;28;1076;-76
2022/10/28 00:40:04;;;;;;;6.90;4.32;;;;;;;14.81;77.59;100197.75;342109;28;2374;-76
2022/10/28 00:40:16;;;;;;;8.50;4.28;;;;;;;14.81;77.94;100197.75;341063;28;2637;-76
2022/10/28 00:40:33;;;;;;;12.23;4.30;;;;;;;14.78;77.95;100196.97;341422;28;1083;-76
2022/10/28 00:40:45;;;;;;;12.70;4.35;;;;;;;14.80;78.07;100202.16;341144;28;1194;-76
2022/10/28 00:40:57;;;;;;;9.48;4.43;;;;;;;14.82;78.08;100196.84;341131;29;1095;-76
2022/10/28 00:41:11;;;;;;;7.90;4.18;;;;;;;14.83;77.83;100198.53;340843;29;1210;-76
2022/10/28 00:41:26;;;;;;;8.93;4.20;;;;;;;14.84;77.83;100200.25;340050;29;1960;-76
2022/10/28 00:41:40;;;;;;;9.25;4.20;;;;;;;14.84;77.72;100195.03;339823;29;1134;-76
2022/10/28 00:41:55;;;;;;;7.90;4.13;;;;;;;14.86;77.69;100203.66;340325;28;2075;-76
2022/10/28 00:42:09;;;;;;;7.38;4.30;;;;;;;14.88;77.78;100199.22;341081;29;1099;-76
2022/10/28 00:42:21;;;;;;;7.80;4.30;;;;;;;14.88;77.69;100196.59;340691;29;1352;-76
2022/10/28 00:42:33;;;;;;;7.50;4.15;;;;;;;14.87;77.56;100201.00;340885;29;1535;-76
2022/10/28 00:42:45;;;;;;;8.00;4.22;;;;;;;14.87;77.52;100193.16;340620;29;2052;-76
2022/10/28 00:42:57;;;;;;;8.57;4.13;;;;;;;14.87;77.73;100200.13;340974;28;1747;-76
2022/10/28 00:43:11;;;;;;;11.90;3.97;;;;;;;14.88;77.54;100199.22;341249;28;2229;-76
2022/10/28 00:43:38;;;;;;;11.43;3.88;;;;;;;14.86;77.40;100193.19;339961;28;2197;-76
2022/10/28 00:43:56;;;;;;;7.85;3.85;;;;;;;14.85;77.58;100199.34;340321;28;1786;-76
2022/10/28 00:44:46;;;;;;;7.38;4.07;;;;;;;14.75;77.63;100197.13;340213;28;1078;-76
2022/10/28 00:45:02;;;;;;;10.75;4.38;;;;;;;14.73;77.69;100196.31;340681;28;1783;-76
2022/10/28 00:45:14;;;;;;;9.38;4.35;;;;;;;14.74;77.88;100198.00;340640;28;1629;-76
2022/10/28 00:45:26;;;;;;;9.18;4.15;;;;;;;14.75;77.97;100204.13;339682;29;1052;-76
2022/10/28 00:45:38;;;;;;;7.95;4.00;;;;;;;14.74;77.68;100198.00;340156;29;1169;-76
2022/10/28 00:45:50;;;;;;;7.15;3.75;;;;;;;14.77;77.80;100202.28;340358;28;1785;-76
2022/10/28 00:46:06;;;;;;;7.68;3.72;;;;;;;14.77;77.75;100204.91;340558;29;1924;-76
2022/10/28 00:46:44;;;;;;;7.55;3.65;;;;;;;14.80;77.90;100201.31;340955;29;1268;-76
2022/10/28 00:46:56;;;;;;;10.07;4.20;;;;;;;14.80;77.99;100203.94;339905;28;2087;-76
2022/10/28 00:47:17;;;;;;;11.15;4.40;;;;;;;14.81;78.14;100200.38;340879;28;1849;-76
2022/10/28 00:47:43;;;;;;;11.13;4.32;;;;;;;14.81;78.29;100195.16;341138;28;1154;-76
2022/10/28 00:47:59;;;;;;;6.85;3.90;;;;;;;14.82;78.26;100196.84;340102;28;1784;-76
2022/10/28 00:48:11;;;;;;;7.93;4.05;;;;;;;14.81;78.35;100200.38;341293;29;1043;-76
2022/10/28 00:48:23;;;;;;;13.90;4.20;;;;;;;14.80;78.47;100204.78;341681;28;1612;-76
2022/10/28 00:48:40;;;;;;;14.57;4.40;;;;;;;14.78;78.48;100196.97;342157;28;1677;-76
2022/10/28 00:49:00;;;;;;;9.85;4.20;;;;;;;14.80;78.52;100203.94;341581;28;1860;-76
2022/10/28 00:49:24;;;;;;;10.45;4.00;;;;;;;14.80;78.60;100202.16;342533;28;1066;-76
2022/10/28 00:49:36;;;;;;;8.50;3.80;;;;;;;14.81;78.39;100197.75;342161;28;1091;-76
2022/10/28 00:49:53;;;;;;;7.32;3.85;;;;;;;14.80;78.45;100202.16;341783;28;1770;-76
2022/10/28 00:50:08;;;;;;;5.93;3.63;;;;;;;14.80;78.26;100198.69;341938;28;1955;-76
2022/10/28 00:50:34;;;;;;;6.85;3.60;;;;;;;14.78;78.17;100196.97;340457;29;1248;-76
2022/10/28 00:50:53;;;;;;;10.35;4.10;;;;;;;14.76;78.27;100206.66;340898;28;1944;-76
2022/10/28 00:51:05;;;;;;;7.32;3.67;;;;;;;14.71;78.37;100200.78;340386;29;1852;-76
2022/10/28 00:51:20;;;;;;;7.88;3.75;;;;;;;14.70;78.25;100201.66;340115;29;1342;-76
2022/10/28 00:51:34;;;;;;;12.52;4.43;;;;;;;14.70;78.66;100196.44;341456;28;1185;-76
2022/10/28 00:51:50;;;;;;;12.95;4.30;;;;;;;14.70;78.78;100199.06;340853;28;1557;-76
2022/10/28 00:52:11;;;;;;;12.55;4.50;;;;;;;14.70;78.70;100206.91;340677;29;1879;-76
2022/10/28 00:52:28;;;;;;;9.88;4.18;;;;;;;14.69;78.68;100202.59;340723;28;1964;-76
2022/10/28 00:52:41;;;;;;;9.13;4.05;;;;;;;14.70;78.51;100204.28;340863;28;1767;-76
2022/10/28 00:53:01;;;;;;;10.57;4.45;;;;;;;14.72;78.22;100196.38;341134;28;1995;-76
2022/10/28 00:53:19;;;;;;;7.78;4.28;;;;;;;14.72;78.52;100205.06;342198;28;1118;-76
2022/10/28 00:53:32;;;;;;;8.00;4.15;;;;;;;14.71;78.50;100200.78;340116;28;2635;-76
2022/10/28 00:53:47;;;;;;;8.98;4.25;;;;;;;14.71;78.63;100199.94;341405;28;1615;-76
2022/10/28 00:53:59;;;;;;;8.60;4.30;;;;;;;14.70;78.63;100201.66;339610;28;2353;-76
2022/10/28 00:54:13;;;;;;;9.75;4.18;;;;;;;14.72;78.47;100202.47;339851;29;1158;-76
2022/10/28 00:54:26;;;;;;;8.75;3.83;;;;;;;14.75;78.41;100201.50;340707;29;1547;-76
2022/10/28 00:54:39;;;;;;;7.07;3.65;;;;;;;14.77;78.39;100200.53;339838;29;2085;-76
2022/10/28 00:54:52;;;;;;;7.85;3.72;;;;;;;14.78;78.52;100196.97;338443;29;1763;-76
2022/10/28 00:55:05;;;;;;;7.40;3.80;;;;;;;14.80;78.35;100201.31;338663;29;2235;-77
2022/10/28 00:55:19;;;;;;;6.95;4.05;;;;;;;14.81;78.47;100205.63;340656;28;1327;-76
2022/10/28 00:55:33;;;;;;;7.18;4.28;;;;;;;14.83;78.37;100204.66;339678;29;1265;-76
2022/10/28 00:55:47;;;;;;;6.72;4.03;;;;;;;14.84;78.49;100195.03;339974;28;1790;-76
2022/10/28 00:56:02;;;;;;;7.35;4.00;;;;;;;14.84;77.98;100198.50;340404;29;2142;-76
2022/10/28 00:56:15;;;;;;;8.25;4.30;;;;;;;14.86;78.29;100195.81;340315;29;1838;-76
2022/10/28 00:56:33;;;;;;;8.88;4.18;;;;;;;14.85;78.40;100202.81;339637;29;1170;-76
2022/10/28 00:56:49;;;;;;;9.48;3.58;;;;;;;14.86;78.08;100193.19;340709;28;1823;-76
2022/10/28 00:57:05;;;;;;;6.25;3.63;;;;;;;14.87;78.16;100200.13;340462;29;1536;-76
2022/10/28 00:57:23;;;;;;;6.50;3.90;;;;;;;14.87;78.39;100200.13;340717;28;1713;-76
2022/10/28 00:57:37;;;;;;;8.10;3.88;;;;;;;14.88;77.95;100201.84;340838;28;1649;-77
2022/10/28 00:57:49;;;;;;;7.57;3.78;;;;;;;14.87;77.87;100200.13;341325;28;2043;-76
2022/10/28 00:58:04;;;;;;;8.77;3.90;;;;;;;14.85;77.88;100197.59;340673;28;1128;-76
2022/10/28 00:58:19;;;;;;;9.68;3.97;;;;;;;14.85;78.10;100197.59;339742;29;1502;-76
2022/10/28 00:58:31;;;;;;;8.48;3.80;;;;;;;14.85;77.89;100196.72;341230;28;1073;-76
2022/10/28 00:58:47;;;;;;;8.20;3.92;;;;;;;14.86;77.71;100198.44;339775;29;1559;-76
2022/10/28 00:59:02;;;;;;;8.65;4.10;;;;;;;14.82;77.89;100192.47;341266;28;1713;-76
2022/10/28 00:59:23;;;;;;;8.90;4.05;;;;;;;14.80;78.03;100198.69;341341;28;1084;-76
2022/10/28 00:59:41;;;;;;;12.00;4.18;;;;;;;14.77;78.06;100199.69;339591;29;1112;-76
2022/10/28 00:59:53;;;;;;;12.05;4.45;;;;;;;14.76;77.96;100192.72;340573;28;1729;-76
2022/10/28 01:00:06;;;;;;;13.30;4.53;;;;;;;14.76;78.08;100198.81;339994;28;2283;-76
2022/10/28 01:00:18;;;;;;;14.57;4.57;;;;;;;14.76;77.96;100193.56;340516;28;2490;-76
2022/10/28 01:00:30;;;;;;;12.70;4.72;;;;;;;14.77;77.92;100197.06;340768;29;1095;-76
2022/10/28 01:00:42;;;;;;;9.93;4.40;;;;;;;14.78;78.02;100186.50;341439;28;1023;-76
2022/10/28 01:00:54;;;;;;;8.23;4.25;;;;;;;14.82;77.89;100196.84;340195;28;2310;-76
2022/10/28 01:01:06;;;;;;;9.27;4.00;;;;;;;14.81;77.99;100197.75;340322;28;2733;-76
2022/10/28 01:01:18;;;;;;;8.10;4.13;;;;;;;14.81;78.17;100192.53;341148;28;1292;-76
2022/10/28 01:01:30;;;;;;;8.75;4.28;;;;;;;14.82;78.02;100194.25;340230;28;1821;-76
2022/10/28 01:01:42;;;;;;;10.65;4.50;;;;;;;14.84;78.10;100195.03;340418;28;2653;-76
2022/10/28 01:01:55;;;;;;;11.88;4.40;;;;;;;14.85;78.14;100196.72;340260;28;2935;-76
2022/10/28 01:02:07;;;;;;;12.43;4.45;;;;;;;14.86;78.05;100193.19;340425;28;2151;-76
2022/10/28 01:02:20;;;;;;;10.43;4.22;;;;;;;14.83;78.18;100198.53;339990;28;1731;-76
2022/10/28 01:02:40;;;;;;;8.07;4.00;;;;;;;14.82;78.46;100194.25;339589;29;1016;-76
2022/10/28 01:02:54;;;;;;;7.35;4.30;;;;;;;14.78;78.29;100194.34;340213;29;1726;-76
2022/10/28 01:03:07;;;;;;;6.28;4.13;;;;;;;14.78;78.56;100196.97;339451;29;2516;-76
2022/10/28 01:03:19;;;;;;;7.78;4.05;;;;;;;14.80;78.25;100194.31;339834;28;2652;-76
2022/10/28 01:03:31;;;;;;;8.77;4.35;;;;;;;14.80;78.60;100198.69;339074;29;2485;-76
2022/10/28 01:03:43;;;;;;;12.13;4.65;;;;;;;14.80;78.62;100198.69;340304;29;1858;-76
2022/10/28 01:03:55;;;;;;;12.70;4.72;;;;;;;14.81;78.52;100192.53;340732;29;1692;-76
2022/10/28 01:04:08;;;;;;;11.80;4.47;;;;;;;14.82;78.64;100196.84;338762;29;2469;-76
2022/10/28 01:04:21;;;;;;;7.38;4.20;;;;;;;14.82;78.68;100196.84;339236;28;1648;-76
2022/10/28 01:04:33;;;;;;;6.18;4.10;;;;;;;14.82;78.79;100192.47;341097;29;1023;-76
2022/10/28 01:04:46;;;;;;;6.53;4.15;;;;;;;14.84;78.62;100195.03;340354;29;1533;-76
2022/10/28 01:04:58;;;;;;;7.22;4.13;;;;;;;14.82;78.94;100191.63;340308;28;1726;-76
2022/10/28 01:05:13;;;;;;;7.57;4.07;;;;;;;14.83;78.91;100193.31;340969;29;1043;-76
2022/10/28 01:05:28;;;;;;;9.00;4.60;;;;;;;14.85;78.92;100197.59;340846;29;1493;-76
2022/10/28 01:05:41;;;;;;;12.20;5.00;;;;;;;14.86;78.87;100199.28;341076;29;1161;-76
2022/10/28 01:05:54;;;;;;;12.80;4.50;;;;;;;14.87;78.68;100194.88;339423;29;1709;-76